Terminal Aerodrome Forecast
Issued by NWS

Home | Current Version | Previous Version | Text Only | Print | Product List | Glossary On
Versions: 1 2 3 4 5 6 7 8 9 10 11 12 13 14 15 16 17 18 19 20 21
000
FTUS41 KPHI 191724
TAFMIV
TAF
KMIV 191724Z 1918/2018 10015G20KT P6SM OVC250
     FM200300 09015G25KT P6SM OVC040
     FM200600 09017G27KT 2SM -RA BR OVC008 WS020/13055KT
     FM201500 16010KT 6SM -SHRA BR OVC015
     FM201700 18008KT P6SM BKN025 OVC040=

USA.gov is the U.S. government's official web portal to all federal, state and local government web resources and services.